LGW weather

London Gatwick Airport
London, England, United Kingdom

Public forecast

Using degrees Celsius for public forecast. Weather courtesy of forecast.io.

METAR (pilot weather report)

Retrieved 2017/03/24 21:20 UTC (29 minutes ago):

EGKK 242120Z 05010KT CAVOK 07/04 Q1031

TAF (pilot weather forecast)

Retrieved 2017/03/24 18:16 UTC (4 hours ago):

TAF EGKK 241652Z 2418/2524 06013KT 9999 FEW015 BECMG 2418/2421 7000 PROB30 2502/2509 3000 HZ BECMG 2509/2512 9999 TEMPO 2510/2518 05018G28KT PROB30 2520/2524 8000